»·PEaware :: N485V KMHV-KSMX

N485V :: KMHV-KSMX

FLIGHT INFORMATION

Flight Status: Arrived
Operator: Privately registered:
United States
More flights under this callsign
Pilot: Daniel F. (15396)
Aircraft: Unknown
(K100)
More flights by this aircraft type
Origin: KMHV Mojave
United States
Destination: KSMX Santa Maria Pub/Capt Hancock
United States
More flights between these airports :: More routes between these airports
Route:
File this flight plan on PilotEdge
Remarks:
Altitude:
(Current/Filed)
8,500ft
Speed:
(Current/Filed)
0kts
Departed: 24-Oct-23 01:09 PM
Arrived: 24-Oct-23 01:53 PM
Distance/Time
Traveled:
113nm/0:44
Distance/Time
To Go:
Arrived

Flight Plot

Page will automatically refresh every two minutes.

Flight plan parsing failed; only flown route is shown


Map Options




Map Legend


Flown Route
Filed Route
Departure Airport
Arrival Airport
Navaid (VOR, NDB)
Fix

Horizontal Profiles

Position Reports

Time Latitude Longitude Heading Altitude Ground
Speed
24-Oct-23 13:04 35.057181 -118.153216 91 2818ft 0kts
24-Oct-23 13:05 35.057619 -118.151633 90 2757ft 16kts
24-Oct-23 13:06 35.057603 -118.144169 90 2744ft 25kts
24-Oct-23 13:07 35.058427 -118.142560 0 2741ft 0kts
24-Oct-23 13:08 35.059171 -118.157844 268 2953ft 120kts
24-Oct-23 13:09 35.055494 -118.206637 264 3986ft 157kts
24-Oct-23 13:10 35.052303 -118.260634 264 4960ft 159kts
24-Oct-23 13:11 35.049066 -118.314148 264 5924ft 157kts
24-Oct-23 13:12 35.045849 -118.366988 264 6937ft 154kts
24-Oct-23 13:13 35.042676 -118.418270 265 7898ft 146kts
24-Oct-23 13:14 35.039585 -118.468750 266 8549ft 160kts
24-Oct-23 13:15 35.036145 -118.524958 265 8548ft 170kts
24-Oct-23 13:16 35.032509 -118.582980 266 8535ft 172kts
24-Oct-23 13:17 35.028826 -118.641277 265 8551ft 170kts
24-Oct-23 13:18 35.025131 -118.699179 265 8536ft 171kts
24-Oct-23 13:19 35.021427 -118.757009 265 8520ft 171kts
24-Oct-23 13:20 35.017700 -118.814670 265 8502ft 170kts
24-Oct-23 13:21 35.013947 -118.872342 265 8490ft 170kts
24-Oct-23 13:22 35.010166 -118.929984 265 8489ft 171kts
24-Oct-23 13:23 35.006364 -118.987639 265 8492ft 170kts
24-Oct-23 13:24 35.002498 -119.045489 265 8488ft 171kts
24-Oct-23 13:25 34.998654 -119.103186 265 8486ft 170kts
24-Oct-23 13:26 34.994759 -119.160751 265 8488ft 170kts
24-Oct-23 13:27 34.990832 -119.218741 266 8490ft 172kts
24-Oct-23 13:28 34.986846 -119.276888 266 8490ft 171kts
24-Oct-23 13:29 34.982837 -119.334923 266 8491ft 170kts
24-Oct-23 13:30 34.978839 -119.392834 266 8496ft 172kts
24-Oct-23 13:31 34.974750 -119.451232 267 8492ft 173kts
24-Oct-23 13:32 34.970624 -119.509875 267 8494ft 173kts
24-Oct-23 13:33 34.966467 -119.568406 266 8499ft 174kts
24-Oct-23 13:34 34.962284 -119.627232 267 8492ft 173kts
24-Oct-23 13:36 34.958081 -119.685668 267 8494ft 173kts
24-Oct-23 13:37 34.953864 -119.743960 267 8494ft 173kts
24-Oct-23 13:38 34.949588 -119.802685 267 8492ft 174kts
24-Oct-23 13:39 34.945280 -119.861490 267 8492ft 175kts
24-Oct-23 13:40 34.940926 -119.920571 267 8491ft 175kts
24-Oct-23 13:41 34.936527 -119.979526 267 8488ft 172kts
24-Oct-23 13:42 34.932161 -120.038157 265 8605ft 177kts
24-Oct-23 13:43 34.928394 -120.088237 264 8035ft 133kts
24-Oct-23 13:44 34.924888 -120.134920 264 6345ft 140kts
24-Oct-23 13:45 34.921309 -120.181758 265 4663ft 139kts
24-Oct-23 13:46 34.917883 -120.229252 264 3596ft 137kts
24-Oct-23 13:47 34.912982 -120.275726 242 3245ft 142kts
24-Oct-23 13:48 34.884270 -120.308980 224 2743ft 140kts
24-Oct-23 13:49 34.872287 -120.346224 250 2579ft 125kts
24-Oct-23 13:50 34.859804 -120.385588 287 2488ft 142kts
24-Oct-23 13:51 34.871690 -120.414956 299 1507ft 70kts
24-Oct-23 13:52 34.883412 -120.434796 310 729ft 72kts
24-Oct-23 13:53 34.896024 -120.449765 318 254ft 38kts
24-Oct-23 13:54 34.898038 -120.449650 137 251ft 12kts
24-Oct-23 13:55 34.896766 -120.447725 56 256ft 9kts
24-Oct-23 13:56 34.896815 -120.445910 43 257ft 0kts

Navigation Log

Ident Type
Flight plan parsing failed, navigation log unavailable